sensor_id;sensor_type;location;lat;lon;timestamp;P1;durP1;ratioP1;P2;durP2;ratioP2
35562;SDS011;21665;40.108;18.302;2023-04-25T00:01:53;18.75;;;17.30;;
35562;SDS011;21665;40.108;18.302;2023-04-25T00:04:20;18.27;;;16.90;;
35562;SDS011;21665;40.108;18.302;2023-04-25T00:06:47;18.83;;;17.10;;
35562;SDS011;21665;40.108;18.302;2023-04-25T00:09:13;18.50;;;17.13;;
35562;SDS011;21665;40.108;18.302;2023-04-25T00:11:40;20.15;;;17.48;;
35562;SDS011;21665;40.108;18.302;2023-04-25T00:14:07;19.33;;;17.67;;
35562;SDS011;21665;40.108;18.302;2023-04-25T00:16:33;19.98;;;18.05;;
35562;SDS011;21665;40.108;18.302;2023-04-25T00:19:00;19.08;;;17.40;;
35562;SDS011;21665;40.108;18.302;2023-04-25T00:21:27;18.48;;;16.88;;
35562;SDS011;21665;40.108;18.302;2023-04-25T00:23:54;18.92;;;17.38;;
35562;SDS011;21665;40.108;18.302;2023-04-25T00:26:22;19.27;;;17.25;;
35562;SDS011;21665;40.108;18.302;2023-04-25T00:28:48;18.73;;;17.10;;
35562;SDS011;21665;40.108;18.302;2023-04-25T00:31:15;18.50;;;17.10;;
35562;SDS011;21665;40.108;18.302;2023-04-25T00:33:41;18.38;;;16.88;;
35562;SDS011;21665;40.108;18.302;2023-04-25T00:36:08;18.27;;;16.55;;
35562;SDS011;21665;40.108;18.302;2023-04-25T00:38:35;17.67;;;16.13;;
35562;SDS011;21665;40.108;18.302;2023-04-25T00:41:05;17.73;;;16.20;;
35562;SDS011;21665;40.108;18.302;2023-04-25T00:43:33;17.58;;;15.77;;
35562;SDS011;21665;40.108;18.302;2023-04-25T00:46:02;16.92;;;15.48;;
35562;SDS011;21665;40.108;18.302;2023-04-25T00:48:28;16.42;;;15.23;;
35562;SDS011;21665;40.108;18.302;2023-04-25T00:50:57;17.40;;;15.57;;
35562;SDS011;21665;40.108;18.302;2023-04-25T00:53:28;16.58;;;15.02;;
35562;SDS011;21665;40.108;18.302;2023-04-25T00:56:01;16.80;;;15.38;;
35562;SDS011;21665;40.108;18.302;2023-04-25T00:58:28;16.60;;;15.13;;
35562;SDS011;21665;40.108;18.302;2023-04-25T01:00:54;19.50;;;14.75;;
35562;SDS011;21665;40.108;18.302;2023-04-25T01:03:22;16.48;;;14.63;;
35562;SDS011;21665;40.108;18.302;2023-04-25T01:05:49;15.60;;;14.02;;
35562;SDS011;21665;40.108;18.302;2023-04-25T01:08:16;16.20;;;14.48;;
35562;SDS011;21665;40.108;18.302;2023-04-25T01:10:42;21.83;;;13.90;;
35562;SDS011;21665;40.108;18.302;2023-04-25T01:13:09;15.48;;;12.93;;
35562;SDS011;21665;40.108;18.302;2023-04-25T01:15:36;15.50;;;12.02;;
35562;SDS011;21665;40.108;18.302;2023-04-25T01:18:04;14.48;;;12.50;;
35562;SDS011;21665;40.108;18.302;2023-04-25T01:20:32;14.60;;;12.18;;
35562;SDS011;21665;40.108;18.302;2023-04-25T01:22:59;14.65;;;12.82;;
35562;SDS011;21665;40.108;18.302;2023-04-25T01:25:28;14.85;;;13.10;;
35562;SDS011;21665;40.108;18.302;2023-04-25T01:27:56;15.20;;;12.45;;
35562;SDS011;21665;40.108;18.302;2023-04-25T01:30:27;13.45;;;11.82;;
35562;SDS011;21665;40.108;18.302;2023-04-25T01:32:56;16.73;;;11.90;;
35562;SDS011;21665;40.108;18.302;2023-04-25T01:35:23;15.25;;;11.98;;
35562;SDS011;21665;40.108;18.302;2023-04-25T01:37:57;13.00;;;11.27;;
35562;SDS011;21665;40.108;18.302;2023-04-25T01:40:24;12.80;;;11.38;;
35562;SDS011;21665;40.108;18.302;2023-04-25T01:42:52;18.40;;;11.43;;
35562;SDS011;21665;40.108;18.302;2023-04-25T01:45:20;17.05;;;11.63;;
35562;SDS011;21665;40.108;18.302;2023-04-25T01:47:50;12.02;;;10.82;;
35562;SDS011;21665;40.108;18.302;2023-04-25T01:50:17;13.60;;;10.13;;
35562;SDS011;21665;40.108;18.302;2023-04-25T01:52:45;11.48;;;10.35;;
35562;SDS011;21665;40.108;18.302;2023-04-25T01:55:12;10.55;;;9.73;;
35562;SDS011;21665;40.108;18.302;2023-04-25T01:57:48;16.77;;;9.98;;
35562;SDS011;21665;40.108;18.302;2023-04-25T02:00:16;11.68;;;9.98;;
35562;SDS011;21665;40.108;18.302;2023-04-25T02:02:42;12.23;;;9.60;;
35562;SDS011;21665;40.108;18.302;2023-04-25T02:05:35;11.80;;;9.00;;
35562;SDS011;21665;40.108;18.302;2023-04-25T02:08:05;10.85;;;8.68;;
35562;SDS011;21665;40.108;18.302;2023-04-25T02:10:33;9.57;;;8.77;;
35562;SDS011;21665;40.108;18.302;2023-04-25T02:13:21;11.27;;;8.85;;
35562;SDS011;21665;40.108;18.302;2023-04-25T02:15:58;11.82;;;8.18;;
35562;SDS011;21665;40.108;18.302;2023-04-25T02:18:25;8.90;;;7.60;;
35562;SDS011;21665;40.108;18.302;2023-04-25T02:20:51;8.63;;;7.82;;
35562;SDS011;21665;40.108;18.302;2023-04-25T02:23:19;12.77;;;7.85;;
35562;SDS011;21665;40.108;18.302;2023-04-25T02:25:46;13.65;;;7.70;;
35562;SDS011;21665;40.108;18.302;2023-04-25T02:28:13;18.15;;;8.95;;
35562;SDS011;21665;40.108;18.302;2023-04-25T02:30:39;17.23;;;8.90;;
35562;SDS011;21665;40.108;18.302;2023-04-25T02:33:06;12.00;;;7.10;;
35562;SDS011;21665;40.108;18.302;2023-04-25T02:35:35;15.38;;;6.70;;
35562;SDS011;21665;40.108;18.302;2023-04-25T02:38:02;13.20;;;6.20;;
35562;SDS011;21665;40.108;18.302;2023-04-25T02:40:28;13.45;;;7.15;;
35562;SDS011;21665;40.108;18.302;2023-04-25T02:42:55;12.25;;;7.18;;
35562;SDS011;21665;40.108;18.302;2023-04-25T02:45:21;13.52;;;6.60;;
35562;SDS011;21665;40.108;18.302;2023-04-25T02:47:48;18.73;;;6.95;;
35562;SDS011;21665;40.108;18.302;2023-04-25T02:50:18;11.77;;;6.78;;
35562;SDS011;21665;40.108;18.302;2023-04-25T02:52:45;17.05;;;7.25;;
35562;SDS011;21665;40.108;18.302;2023-04-25T02:55:19;16.77;;;7.03;;
35562;SDS011;21665;40.108;18.302;2023-04-25T02:57:47;20.52;;;7.15;;
35562;SDS011;21665;40.108;18.302;2023-04-25T03:00:21;14.18;;;7.03;;
35562;SDS011;21665;40.108;18.302;2023-04-25T03:02:48;17.52;;;7.28;;
35562;SDS011;21665;40.108;18.302;2023-04-25T03:05:15;11.63;;;7.00;;
35562;SDS011;21665;40.108;18.302;2023-04-25T03:07:42;8.20;;;6.60;;
35562;SDS011;21665;40.108;18.302;2023-04-25T03:10:10;19.13;;;7.38;;
35562;SDS011;21665;40.108;18.302;2023-04-25T03:12:36;13.13;;;6.70;;
35562;SDS011;21665;40.108;18.302;2023-04-25T03:15:03;10.05;;;6.70;;
35562;SDS011;21665;40.108;18.302;2023-04-25T03:17:31;9.60;;;5.97;;
35562;SDS011;21665;40.108;18.302;2023-04-25T03:19:58;18.10;;;7.35;;
35562;SDS011;21665;40.108;18.302;2023-04-25T03:22:24;16.92;;;6.80;;
35562;SDS011;21665;40.108;18.302;2023-04-25T03:24:51;14.90;;;7.50;;
35562;SDS011;21665;40.108;18.302;2023-04-25T03:27:19;14.52;;;6.43;;
35562;SDS011;21665;40.108;18.302;2023-04-25T03:29:46;15.75;;;6.65;;
35562;SDS011;21665;40.108;18.302;2023-04-25T03:32:13;8.43;;;6.65;;
35562;SDS011;21665;40.108;18.302;2023-04-25T03:34:39;12.63;;;6.95;;
35562;SDS011;21665;40.108;18.302;2023-04-25T03:37:06;15.65;;;7.03;;
35562;SDS011;21665;40.108;18.302;2023-04-25T03:39:36;12.32;;;6.22;;
35562;SDS011;21665;40.108;18.302;2023-04-25T03:42:05;14.13;;;6.35;;
35562;SDS011;21665;40.108;18.302;2023-04-25T03:44:32;14.82;;;6.60;;
35562;SDS011;21665;40.108;18.302;2023-04-25T03:47:00;13.07;;;6.30;;
35562;SDS011;21665;40.108;18.302;2023-04-25T03:49:26;15.98;;;6.53;;
35562;SDS011;21665;40.108;18.302;2023-04-25T03:52:01;12.40;;;6.55;;
35562;SDS011;21665;40.108;18.302;2023-04-25T03:54:34;11.48;;;5.75;;
35562;SDS011;21665;40.108;18.302;2023-04-25T03:57:07;12.07;;;6.40;;
35562;SDS011;21665;40.108;18.302;2023-04-25T03:59:37;14.48;;;5.90;;
35562;SDS011;21665;40.108;18.302;2023-04-25T04:02:05;14.40;;;6.28;;
35562;SDS011;21665;40.108;18.302;2023-04-25T04:04:34;15.73;;;6.60;;
35562;SDS011;21665;40.108;18.302;2023-04-25T04:07:01;19.88;;;7.38;;
35562;SDS011;21665;40.108;18.302;2023-04-25T04:09:31;22.48;;;7.13;;
35562;SDS011;21665;40.108;18.302;2023-04-25T04:11:59;19.33;;;6.88;;
35562;SDS011;21665;40.108;18.302;2023-04-25T04:14:29;15.38;;;6.57;;
35562;SDS011;21665;40.108;18.302;2023-04-25T04:16:56;16.88;;;6.18;;
35562;SDS011;21665;40.108;18.302;2023-04-25T04:19:22;12.60;;;6.72;;
35562;SDS011;21665;40.108;18.302;2023-04-25T04:21:58;14.00;;;6.10;;
35562;SDS011;21665;40.108;18.302;2023-04-25T04:24:25;13.57;;;7.25;;
35562;SDS011;21665;40.108;18.302;2023-04-25T04:26:57;10.25;;;6.35;;
35562;SDS011;21665;40.108;18.302;2023-04-25T04:29:43;11.50;;;7.35;;
35562;SDS011;21665;40.108;18.302;2023-04-25T04:32:23;12.25;;;6.65;;
35562;SDS011;21665;40.108;18.302;2023-04-25T04:34:53;21.50;;;8.13;;
35562;SDS011;21665;40.108;18.302;2023-04-25T04:37:22;13.95;;;7.07;;
35562;SDS011;21665;40.108;18.302;2023-04-25T04:39:50;12.52;;;6.63;;
35562;SDS011;21665;40.108;18.302;2023-04-25T04:42:46;11.43;;;7.13;;
35562;SDS011;21665;40.108;18.302;2023-04-25T04:45:37;13.35;;;7.30;;
35562;SDS011;21665;40.108;18.302;2023-04-25T04:48:20;7.78;;;6.55;;
35562;SDS011;21665;40.108;18.302;2023-04-25T04:50:55;16.98;;;7.35;;
35562;SDS011;21665;40.108;18.302;2023-04-25T04:53:41;14.65;;;7.13;;
35562;SDS011;21665;40.108;18.302;2023-04-25T04:56:16;9.93;;;7.65;;
35562;SDS011;21665;40.108;18.302;2023-04-25T04:59:10;14.45;;;9.45;;
35562;SDS011;21665;40.108;18.302;2023-04-25T05:01:43;18.02;;;13.25;;
35562;SDS011;21665;40.108;18.302;2023-04-25T05:04:34;15.60;;;14.00;;
35562;SDS011;21665;40.108;18.302;2023-04-25T05:07:17;18.40;;;16.63;;
35562;SDS011;21665;40.108;18.302;2023-04-25T05:09:58;20.52;;;18.60;;
35562;SDS011;21665;40.108;18.302;2023-04-25T05:12:44;20.63;;;18.50;;
35562;SDS011;21665;40.108;18.302;2023-04-25T05:15:11;21.35;;;19.05;;
35562;SDS011;21665;40.108;18.302;2023-04-25T05:18:01;21.10;;;19.50;;
35562;SDS011;21665;40.108;18.302;2023-04-25T05:20:54;22.08;;;20.17;;
35562;SDS011;21665;40.108;18.302;2023-04-25T05:23:39;22.73;;;20.67;;
35562;SDS011;21665;40.108;18.302;2023-04-25T05:26:21;22.42;;;20.58;;
35562;SDS011;21665;40.108;18.302;2023-04-25T05:29:13;21.80;;;20.05;;
35562;SDS011;21665;40.108;18.302;2023-04-25T05:31:53;21.83;;;20.17;;
35562;SDS011;21665;40.108;18.302;2023-04-25T05:34:19;22.25;;;20.38;;
35562;SDS011;21665;40.108;18.302;2023-04-25T05:36:58;21.63;;;20.02;;
35562;SDS011;21665;40.108;18.302;2023-04-25T05:39:26;22.55;;;20.60;;
35562;SDS011;21665;40.108;18.302;2023-04-25T05:41:52;21.48;;;19.95;;
35562;SDS011;21665;40.108;18.302;2023-04-25T05:44:45;21.88;;;20.05;;
35562;SDS011;21665;40.108;18.302;2023-04-25T05:47:35;21.60;;;20.00;;
35562;SDS011;21665;40.108;18.302;2023-04-25T05:50:34;22.00;;;20.38;;
35562;SDS011;21665;40.108;18.302;2023-04-25T05:53:15;22.48;;;20.95;;
35562;SDS011;21665;40.108;18.302;2023-04-25T05:55:42;22.63;;;20.70;;
35562;SDS011;21665;40.108;18.302;2023-04-25T05:58:21;22.65;;;20.90;;
35562;SDS011;21665;40.108;18.302;2023-04-25T06:00:48;22.55;;;20.85;;
35562;SDS011;21665;40.108;18.302;2023-04-25T06:03:14;22.48;;;20.85;;
35562;SDS011;21665;40.108;18.302;2023-04-25T06:05:41;22.90;;;21.27;;
35562;SDS011;21665;40.108;18.302;2023-04-25T06:08:09;23.08;;;21.17;;
35562;SDS011;21665;40.108;18.302;2023-04-25T06:10:40;23.75;;;21.88;;
35562;SDS011;21665;40.108;18.302;2023-04-25T06:13:06;24.15;;;22.33;;
35562;SDS011;21665;40.108;18.302;2023-04-25T06:15:34;24.30;;;22.52;;
35562;SDS011;21665;40.108;18.302;2023-04-25T06:18:01;24.67;;;22.75;;
35562;SDS011;21665;40.108;18.302;2023-04-25T06:20:35;25.10;;;23.15;;
35562;SDS011;21665;40.108;18.302;2023-04-25T06:25:40;24.65;;;22.85;;
35562;SDS011;21665;40.108;18.302;2023-04-25T06:28:07;23.95;;;22.25;;
35562;SDS011;21665;40.108;18.302;2023-04-25T06:30:34;23.52;;;22.00;;
35562;SDS011;21665;40.108;18.302;2023-04-25T06:33:06;24.30;;;22.45;;
35562;SDS011;21665;40.108;18.302;2023-04-25T06:35:34;24.75;;;22.98;;
35562;SDS011;21665;40.108;18.302;2023-04-25T06:38:01;24.23;;;22.27;;
35562;SDS011;21665;40.108;18.302;2023-04-25T06:40:29;23.92;;;22.15;;
35562;SDS011;21665;40.108;18.302;2023-04-25T06:42:56;23.38;;;21.67;;
35562;SDS011;21665;40.108;18.302;2023-04-25T06:45:45;23.52;;;21.83;;
35562;SDS011;21665;40.108;18.302;2023-04-25T06:48:11;24.08;;;22.38;;
35562;SDS011;21665;40.108;18.302;2023-04-25T06:50:38;23.90;;;22.20;;
35562;SDS011;21665;40.108;18.302;2023-04-25T06:53:04;24.25;;;22.65;;
35562;SDS011;21665;40.108;18.302;2023-04-25T06:55:31;25.45;;;23.38;;
35562;SDS011;21665;40.108;18.302;2023-04-25T06:58:20;25.13;;;23.15;;
35562;SDS011;21665;40.108;18.302;2023-04-25T07:01:03;24.42;;;22.77;;
35562;SDS011;21665;40.108;18.302;2023-04-25T07:03:34;24.38;;;22.77;;
35562;SDS011;21665;40.108;18.302;2023-04-25T07:06:07;24.85;;;23.25;;
35562;SDS011;21665;40.108;18.302;2023-04-25T07:08:34;25.15;;;23.45;;
35562;SDS011;21665;40.108;18.302;2023-04-25T07:11:00;24.70;;;23.20;;
35562;SDS011;21665;40.108;18.302;2023-04-25T07:13:36;24.23;;;22.55;;
35562;SDS011;21665;40.108;18.302;2023-04-25T07:16:03;24.13;;;22.60;;
35562;SDS011;21665;40.108;18.302;2023-04-25T07:18:32;24.77;;;23.15;;
35562;SDS011;21665;40.108;18.302;2023-04-25T07:21:00;24.90;;;23.13;;
35562;SDS011;21665;40.108;18.302;2023-04-25T07:23:28;23.80;;;22.17;;
35562;SDS011;21665;40.108;18.302;2023-04-25T10:19:10;24.42;;;22.85;;
35562;SDS011;21665;40.108;18.302;2023-04-25T10:21:40;24.35;;;22.45;;
35562;SDS011;21665;40.108;18.302;2023-04-25T10:24:12;23.75;;;22.17;;
35562;SDS011;21665;40.108;18.302;2023-04-25T10:26:38;24.05;;;22.40;;
35562;SDS011;21665;40.108;18.302;2023-04-25T10:29:05;24.10;;;22.35;;
35562;SDS011;21665;40.108;18.302;2023-04-25T10:31:32;23.75;;;22.20;;
35562;SDS011;21665;40.108;18.302;2023-04-25T10:34:00;24.20;;;22.40;;
35562;SDS011;21665;40.108;18.302;2023-04-25T10:36:27;24.75;;;22.58;;
35562;SDS011;21665;40.108;18.302;2023-04-25T10:38:58;25.17;;;23.23;;
35562;SDS011;21665;40.108;18.302;2023-04-25T10:42:08;25.25;;;23.63;;
35562;SDS011;21665;40.108;18.302;2023-04-25T10:44:28;24.30;;;22.80;;
35562;SDS011;21665;40.108;18.302;2023-04-25T10:46:56;24.40;;;22.80;;
35562;SDS011;21665;40.108;18.302;2023-04-25T10:54:41;23.88;;;22.10;;
35562;SDS011;21665;40.108;18.302;2023-04-25T10:57:25;23.88;;;22.38;;
35562;SDS011;21665;40.108;18.302;2023-04-25T11:00:00;25.38;;;23.58;;
35562;SDS011;21665;40.108;18.302;2023-04-25T11:02:32;25.15;;;23.38;;
35562;SDS011;21665;40.108;18.302;2023-04-25T11:05:34;22.98;;;21.35;;
35562;SDS011;21665;40.108;18.302;2023-04-25T11:08:00;23.08;;;21.58;;
35562;SDS011;21665;40.108;18.302;2023-04-25T11:10:30;23.08;;;21.63;;
35562;SDS011;21665;40.108;18.302;2023-04-25T11:12:58;22.60;;;21.10;;
35562;SDS011;21665;40.108;18.302;2023-04-25T11:15:28;22.60;;;21.20;;
35562;SDS011;21665;40.108;18.302;2023-04-25T11:17:55;22.63;;;21.00;;
35562;SDS011;21665;40.108;18.302;2023-04-25T11:20:22;22.73;;;21.10;;
35562;SDS011;21665;40.108;18.302;2023-04-25T11:22:51;23.05;;;21.20;;
35562;SDS011;21665;40.108;18.302;2023-04-25T11:25:18;23.00;;;21.27;;
35562;SDS011;21665;40.108;18.302;2023-04-25T11:27:58;22.92;;;21.27;;
35562;SDS011;21665;40.108;18.302;2023-04-25T11:30:26;22.40;;;20.90;;
35562;SDS011;21665;40.108;18.302;2023-04-25T11:32:54;22.25;;;20.70;;
35562;SDS011;21665;40.108;18.302;2023-04-25T11:35:21;22.40;;;20.90;;
35562;SDS011;21665;40.108;18.302;2023-04-25T11:37:48;23.52;;;21.55;;
35562;SDS011;21665;40.108;18.302;2023-04-25T11:40:15;22.98;;;21.33;;
35562;SDS011;21665;40.108;18.302;2023-04-25T11:42:46;23.02;;;21.48;;
35562;SDS011;21665;40.108;18.302;2023-04-25T11:45:13;22.40;;;20.67;;
35562;SDS011;21665;40.108;18.302;2023-04-25T11:47:40;21.65;;;20.35;;
35562;SDS011;21665;40.108;18.302;2023-04-25T11:50:07;22.98;;;21.08;;
35562;SDS011;21665;40.108;18.302;2023-04-25T11:52:41;22.70;;;21.20;;
35562;SDS011;21665;40.108;18.302;2023-04-25T11:55:09;22.20;;;20.77;;
35562;SDS011;21665;40.108;18.302;2023-04-25T11:57:39;23.20;;;21.52;;
35562;SDS011;21665;40.108;18.302;2023-04-25T12:00:07;23.48;;;21.88;;
35562;SDS011;21665;40.108;18.302;2023-04-25T12:02:43;23.10;;;21.60;;
35562;SDS011;21665;40.108;18.302;2023-04-25T12:05:11;23.63;;;21.92;;
35562;SDS011;21665;40.108;18.302;2023-04-25T12:07:39;23.38;;;21.88;;
35562;SDS011;21665;40.108;18.302;2023-04-25T12:10:07;22.80;;;21.33;;
35562;SDS011;21665;40.108;18.302;2023-04-25T12:12:36;23.38;;;21.65;;
35562;SDS011;21665;40.108;18.302;2023-04-25T12:15:23;22.58;;;21.17;;
35562;SDS011;21665;40.108;18.302;2023-04-25T12:17:52;23.15;;;21.27;;
35562;SDS011;21665;40.108;18.302;2023-04-25T12:20:25;23.13;;;21.25;;
35562;SDS011;21665;40.108;18.302;2023-04-25T12:22:52;22.25;;;20.77;;
35562;SDS011;21665;40.108;18.302;2023-04-25T12:25:35;22.30;;;20.80;;
35562;SDS011;21665;40.108;18.302;2023-04-25T12:28:15;23.45;;;21.63;;
35562;SDS011;21665;40.108;18.302;2023-04-25T12:33:18;22.63;;;21.13;;
35562;SDS011;21665;40.108;18.302;2023-04-25T12:35:45;22.30;;;20.83;;
35562;SDS011;21665;40.108;18.302;2023-04-25T12:38:30;22.40;;;20.90;;
35562;SDS011;21665;40.108;18.302;2023-04-25T15:38:49;18.80;;;17.10;;
35562;SDS011;21665;40.108;18.302;2023-04-25T15:41:16;17.90;;;16.20;;
35562;SDS011;21665;40.108;18.302;2023-04-25T15:43:43;17.85;;;16.52;;
35562;SDS011;21665;40.108;18.302;2023-04-25T15:46:09;18.33;;;16.50;;
35562;SDS011;21665;40.108;18.302;2023-04-25T15:48:36;18.10;;;16.02;;
35562;SDS011;21665;40.108;18.302;2023-04-25T15:51:06;18.15;;;16.25;;
35562;SDS011;21665;40.108;18.302;2023-04-25T15:53:47;21.30;;;16.45;;
35562;SDS011;21665;40.108;18.302;2023-04-25T15:56:14;19.25;;;16.77;;
35562;SDS011;21665;40.108;18.302;2023-04-25T15:58:40;18.42;;;16.52;;
35562;SDS011;21665;40.108;18.302;2023-04-25T16:01:07;18.13;;;16.45;;
35562;SDS011;21665;40.108;18.302;2023-04-25T16:03:34;19.20;;;16.92;;
35562;SDS011;21665;40.108;18.302;2023-04-25T16:06:00;17.75;;;16.27;;
35562;SDS011;21665;40.108;18.302;2023-04-25T16:08:27;18.58;;;16.67;;
35562;SDS011;21665;40.108;18.302;2023-04-25T16:10:54;18.30;;;16.70;;
35562;SDS011;21665;40.108;18.302;2023-04-25T16:13:21;19.80;;;16.20;;
35562;SDS011;21665;40.108;18.302;2023-04-25T16:15:48;18.15;;;16.40;;
35562;SDS011;21665;40.108;18.302;2023-04-25T16:18:15;19.60;;;16.80;;
35562;SDS011;21665;40.108;18.302;2023-04-25T16:20:41;19.35;;;16.52;;
35562;SDS011;21665;40.108;18.302;2023-04-25T16:23:08;18.30;;;16.52;;
35562;SDS011;21665;40.108;18.302;2023-04-25T16:25:37;18.17;;;16.35;;
35562;SDS011;21665;40.108;18.302;2023-04-25T16:28:03;18.27;;;16.70;;
35562;SDS011;21665;40.108;18.302;2023-04-25T16:30:30;18.10;;;16.30;;
35562;SDS011;21665;40.108;18.302;2023-04-25T16:33:02;22.75;;;16.38;;
35562;SDS011;21665;40.108;18.302;2023-04-25T16:35:29;18.40;;;16.63;;
35562;SDS011;21665;40.108;18.302;2023-04-25T16:37:57;18.75;;;16.98;;
35562;SDS011;21665;40.108;18.302;2023-04-25T16:40:24;18.77;;;16.95;;
35562;SDS011;21665;40.108;18.302;2023-04-25T16:42:51;18.02;;;16.30;;
35562;SDS011;21665;40.108;18.302;2023-04-25T16:45:17;17.75;;;15.98;;
35562;SDS011;21665;40.108;18.302;2023-04-25T16:47:49;18.55;;;16.60;;
35562;SDS011;21665;40.108;18.302;2023-04-25T16:50:15;17.85;;;16.30;;
35562;SDS011;21665;40.108;18.302;2023-04-25T16:52:46;18.85;;;16.38;;
35562;SDS011;21665;40.108;18.302;2023-04-25T16:55:13;18.58;;;16.73;;
35562;SDS011;21665;40.108;18.302;2023-04-25T16:57:40;21.35;;;17.08;;
35562;SDS011;21665;40.108;18.302;2023-04-25T17:00:06;20.48;;;17.10;;
35562;SDS011;21665;40.108;18.302;2023-04-25T17:02:37;18.80;;;17.15;;
35562;SDS011;21665;40.108;18.302;2023-04-25T17:05:04;22.40;;;16.98;;
35562;SDS011;21665;40.108;18.302;2023-04-25T17:07:31;20.25;;;16.90;;
35562;SDS011;21665;40.108;18.302;2023-04-25T17:09:58;17.35;;;15.75;;
35562;SDS011;21665;40.108;18.302;2023-04-25T17:12:25;17.88;;;16.27;;
35562;SDS011;21665;40.108;18.302;2023-04-25T17:14:51;22.90;;;17.48;;
35562;SDS011;21665;40.108;18.302;2023-04-25T17:17:18;18.35;;;16.77;;
35562;SDS011;21665;40.108;18.302;2023-04-25T17:19:45;18.67;;;16.70;;
35562;SDS011;21665;40.108;18.302;2023-04-25T17:22:12;18.92;;;17.20;;
35562;SDS011;21665;40.108;18.302;2023-04-25T17:24:39;19.13;;;17.30;;
35562;SDS011;21665;40.108;18.302;2023-04-25T17:27:06;21.25;;;17.50;;
35562;SDS011;21665;40.108;18.302;2023-04-25T17:29:33;19.27;;;17.40;;
35562;SDS011;21665;40.108;18.302;2023-04-25T17:32:00;20.33;;;17.50;;
35562;SDS011;21665;40.108;18.302;2023-04-25T17:34:27;21.25;;;17.60;;
35562;SDS011;21665;40.108;18.302;2023-04-25T17:36:56;24.50;;;18.05;;
35562;SDS011;21665;40.108;18.302;2023-04-25T17:39:22;19.42;;;17.40;;
35562;SDS011;21665;40.108;18.302;2023-04-25T17:41:51;20.65;;;18.35;;
35562;SDS011;21665;40.108;18.302;2023-04-25T17:44:17;19.90;;;17.88;;
35562;SDS011;21665;40.108;18.302;2023-04-25T17:46:46;23.50;;;18.70;;
35562;SDS011;21665;40.108;18.302;2023-04-25T17:49:22;19.95;;;17.85;;
35562;SDS011;21665;40.108;18.302;2023-04-25T17:51:48;20.15;;;17.05;;
35562;SDS011;21665;40.108;18.302;2023-04-25T17:54:15;20.00;;;18.05;;
35562;SDS011;21665;40.108;18.302;2023-04-25T18:15:45;18.45;;;16.73;;
35562;SDS011;21665;40.108;18.302;2023-04-25T18:18:11;18.35;;;16.40;;
35562;SDS011;21665;40.108;18.302;2023-04-25T18:20:45;17.93;;;16.27;;
35562;SDS011;21665;40.108;18.302;2023-04-25T18:23:14;17.70;;;16.02;;
35562;SDS011;21665;40.108;18.302;2023-04-25T18:25:41;20.58;;;16.95;;
35562;SDS011;21665;40.108;18.302;2023-04-25T18:28:07;18.33;;;16.63;;
35562;SDS011;21665;40.108;18.302;2023-04-25T18:30:36;18.10;;;16.35;;
35562;SDS011;21665;40.108;18.302;2023-04-25T18:33:02;21.15;;;17.15;;
35562;SDS011;21665;40.108;18.302;2023-04-25T18:35:29;20.15;;;16.40;;
35562;SDS011;21665;40.108;18.302;2023-04-25T18:37:55;18.48;;;16.80;;
35562;SDS011;21665;40.108;18.302;2023-04-25T18:40:22;19.65;;;16.20;;
35562;SDS011;21665;40.108;18.302;2023-04-25T18:42:48;18.70;;;16.42;;
35562;SDS011;21665;40.108;18.302;2023-04-25T18:45:15;19.17;;;17.08;;
35562;SDS011;21665;40.108;18.302;2023-04-25T18:47:41;19.00;;;16.00;;
35562;SDS011;21665;40.108;18.302;2023-04-25T18:50:07;19.83;;;16.40;;
35562;SDS011;21665;40.108;18.302;2023-04-25T18:52:34;23.35;;;16.75;;
35562;SDS011;21665;40.108;18.302;2023-04-25T18:55:01;21.73;;;16.42;;
35562;SDS011;21665;40.108;18.302;2023-04-25T18:57:28;20.10;;;16.52;;
35562;SDS011;21665;40.108;18.302;2023-04-25T18:59:54;20.83;;;16.08;;
35562;SDS011;21665;40.108;18.302;2023-04-25T19:02:20;19.58;;;16.20;;
35562;SDS011;21665;40.108;18.302;2023-04-25T19:04:47;19.90;;;16.40;;
35562;SDS011;21665;40.108;18.302;2023-04-25T19:07:13;18.15;;;16.35;;
35562;SDS011;21665;40.108;18.302;2023-04-25T19:09:40;18.38;;;16.73;;
35562;SDS011;21665;40.108;18.302;2023-04-25T19:12:07;19.63;;;17.05;;
35562;SDS011;21665;40.108;18.302;2023-04-25T19:14:34;23.20;;;17.05;;
35562;SDS011;21665;40.108;18.302;2023-04-25T19:17:00;18.63;;;16.70;;
35562;SDS011;21665;40.108;18.302;2023-04-25T19:19:30;22.08;;;17.08;;
35562;SDS011;21665;40.108;18.302;2023-04-25T19:21:57;24.67;;;18.65;;
35562;SDS011;21665;40.108;18.302;2023-04-25T19:24:26;18.85;;;17.20;;
35562;SDS011;21665;40.108;18.302;2023-04-25T19:26:56;18.45;;;16.73;;
35562;SDS011;21665;40.108;18.302;2023-04-25T19:29:22;18.55;;;16.73;;
35562;SDS011;21665;40.108;18.302;2023-04-25T19:31:49;18.00;;;16.30;;
35562;SDS011;21665;40.108;18.302;2023-04-25T19:34:16;21.67;;;16.55;;
35562;SDS011;21665;40.108;18.302;2023-04-25T19:36:42;18.83;;;16.98;;
35562;SDS011;21665;40.108;18.302;2023-04-25T19:39:09;18.13;;;16.60;;
35562;SDS011;21665;40.108;18.302;2023-04-25T19:41:36;18.65;;;16.77;;
35562;SDS011;21665;40.108;18.302;2023-04-25T19:44:03;18.58;;;16.70;;
35562;SDS011;21665;40.108;18.302;2023-04-25T19:46:32;21.02;;;16.90;;
35562;SDS011;21665;40.108;18.302;2023-04-25T19:48:59;21.95;;;17.13;;
35562;SDS011;21665;40.108;18.302;2023-04-25T19:51:27;20.90;;;16.50;;
35562;SDS011;21665;40.108;18.302;2023-04-25T19:53:54;18.63;;;16.85;;
35562;SDS011;21665;40.108;18.302;2023-04-25T19:56:24;19.10;;;16.77;;
35562;SDS011;21665;40.108;18.302;2023-04-25T19:58:51;17.55;;;15.98;;
35562;SDS011;21665;40.108;18.302;2023-04-25T20:01:18;18.55;;;16.67;;
35562;SDS011;21665;40.108;18.302;2023-04-25T20:03:47;18.13;;;16.08;;
35562;SDS011;21665;40.108;18.302;2023-04-25T20:06:16;17.67;;;16.08;;
35562;SDS011;21665;40.108;18.302;2023-04-25T20:08:46;18.75;;;15.95;;
35562;SDS011;21665;40.108;18.302;2023-04-25T20:11:14;22.58;;;16.83;;
35562;SDS011;21665;40.108;18.302;2023-04-25T20:13:40;17.50;;;15.75;;
35562;SDS011;21665;40.108;18.302;2023-04-25T20:16:08;17.60;;;15.80;;
35562;SDS011;21665;40.108;18.302;2023-04-25T20:18:34;19.48;;;15.73;;
35562;SDS011;21665;40.108;18.302;2023-04-25T20:21:01;17.80;;;14.85;;
35562;SDS011;21665;40.108;18.302;2023-04-25T20:23:27;16.27;;;14.98;;
35562;SDS011;21665;40.108;18.302;2023-04-25T20:25:54;17.40;;;14.50;;
35562;SDS011;21665;40.108;18.302;2023-04-25T20:28:20;17.63;;;14.50;;
35562;SDS011;21665;40.108;18.302;2023-04-25T20:30:47;21.25;;;14.73;;
35562;SDS011;21665;40.108;18.302;2023-04-25T20:33:15;19.25;;;14.90;;
35562;SDS011;21665;40.108;18.302;2023-04-25T20:35:41;15.57;;;14.13;;
35562;SDS011;21665;40.108;18.302;2023-04-25T20:38:08;15.05;;;13.82;;
35562;SDS011;21665;40.108;18.302;2023-04-25T20:40:34;15.13;;;13.85;;
35562;SDS011;21665;40.108;18.302;2023-04-25T20:43:01;16.17;;;14.48;;
35562;SDS011;21665;40.108;18.302;2023-04-25T20:45:30;15.40;;;13.77;;
35562;SDS011;21665;40.108;18.302;2023-04-25T20:47:58;14.77;;;13.20;;